Taneyville, Missouri
Current Conditions -  °F | °C
As of 1:50 PM on Friday 31 Oct 2014 (Local Time) from KBBG Reporting Station
Few Clouds Few Clouds  
Wind Chill: 50°   Ceiling: Unl
Heat Index: 50°   Visibility: 10mi
Dew Point: 25°   Wind: 20mph
Humidity: 37%   Direction: 360°N
Pressure: 30.32"   Gusts: 31mph
Location:  36.74°N, 93.03°W
Report Text: KBBG 311850Z 36017G27KT 10SM FEW040 10/M04 A3032
Loading
Personal Weather Stations






























Interactive Weather Map
Tropical Storm Tracking
New forecast layout! Learn more

10-Day Weather Forecast

Advertisements
Track Severe Weather on mobile